Angel Fire, New Mexico
Current Conditions -  °F | °C
As of 12:55 PM on Monday 24 Nov 2014 (Local Time) from KAXX Reporting Station
Overcast Overcast  
Wind Chill: 16°   Ceiling: 7000
Heat Index: 26°   Visibility: 10mi
Dew Point:   Wind: 12mph
Humidity: 43%   Direction: 270°W
Pressure: 30.01"   Gusts: NA
Location:  36.39°N, 105.29°W
Report Text: KAXX 241955Z AUTO 27010KT 10SM OVC070 M03/M14 A3001 RMK AO2 T10331143
Loading
Personal Weather Stations






























Interactive Weather Map New forecast layout! Learn more

10-Day Weather Forecast

Advertisements
Track Severe Weather on mobile